createdAt,value
2022-12-29T00:01:10.790Z,99895.41
2022-12-29T00:03:38.960Z,99876.91
2022-12-29T00:06:08.547Z,99878.81
2022-12-29T00:08:42.320Z,99880.03
2022-12-29T00:11:12.563Z,99865.34
2022-12-29T00:13:58.387Z,99859.25
2022-12-29T00:16:26.667Z,99870.84
2022-12-29T00:18:54.861Z,99860.22
2022-12-29T00:21:43.212Z,99854.22
2022-12-29T00:24:32.463Z,99847.31
2022-12-29T00:27:26.074Z,99831.69
2022-12-29T00:30:12.038Z,99832.53
2022-12-29T00:32:57.258Z,99835.97
2022-12-29T00:35:31.351Z,99827.03
2022-12-29T00:38:23.113Z,99834.56
2022-12-29T00:41:09.043Z,99832.06
2022-12-29T00:43:54.417Z,99821.56
2022-12-29T00:46:22.662Z,99806.03
2022-12-29T00:49:08.265Z,99814.84
2022-12-29T00:51:36.484Z,99809.50
2022-12-29T00:54:06.006Z,99803.88
2022-12-29T00:56:34.197Z,99801.25
2022-12-29T00:59:03.082Z,99803.19
2022-12-29T01:01:31.617Z,99802.19
2022-12-29T01:04:03.734Z,99797.94
2022-12-29T01:06:32.657Z,99797.94
2022-12-29T01:09:18.974Z,99791.81
2022-12-29T01:11:48.522Z,99793.84
2022-12-29T01:14:17.115Z,99790.16
2022-12-29T01:16:47.255Z,99788.38
2022-12-29T01:19:16.241Z,99783.13
2022-12-29T01:21:46.512Z,99787.44
2022-12-29T01:24:15.354Z,99780.72
2022-12-29T01:26:43.561Z,99774.88
2022-12-29T01:29:15.404Z,99778.72
2022-12-29T01:31:43.525Z,99781.22
2022-12-29T01:34:11.753Z,99768.34
2022-12-29T01:36:39.850Z,99766.78
2022-12-29T01:39:07.984Z,99762.34
2022-12-29T01:41:36.202Z,99753.78
2022-12-29T01:44:04.329Z,99760.22
2022-12-29T01:46:37.110Z,99757.59
2022-12-29T01:49:07.487Z,99767.13
2022-12-29T01:51:39.988Z,99755.19
2022-12-29T01:54:36.006Z,99736.81
2022-12-29T01:57:09.591Z,99753.53
2022-12-29T01:59:40.369Z,99753.16
2022-12-29T02:02:10.253Z,99742.78
2022-12-29T02:04:45.296Z,99749.59
2022-12-29T02:07:19.510Z,99734.22
2022-12-29T02:09:49.862Z,99741.72
2022-12-29T02:12:20.143Z,99749.72
2022-12-29T02:14:50.089Z,99743.97
2022-12-29T02:17:30.853Z,99748.75
2022-12-29T02:20:36.959Z,99742.53
2022-12-29T02:23:28.923Z,99738.84
2022-12-29T02:26:14.112Z,99737.88
2022-12-29T02:29:15.210Z,99744.66
2022-12-29T02:31:53.327Z,99735.00
2022-12-29T02:34:46.662Z,99742.03
2022-12-29T02:37:24.544Z,99732.47
2022-12-29T02:39:59.887Z,99734.97
2022-12-29T02:42:38.028Z,99723.16
2022-12-29T02:45:12.405Z,99726.38
2022-12-29T02:47:50.089Z,99725.03
2022-12-29T02:50:26.473Z,99723.50
2022-12-29T02:53:00.441Z,99730.97
2022-12-29T02:55:27.780Z,99720.25
2022-12-29T02:58:17.468Z,99723.69
2022-12-29T03:01:05.857Z,99714.88
2022-12-29T03:03:48.431Z,99722.63
2022-12-29T03:06:35.005Z,99725.97
2022-12-29T03:09:18.822Z,99724.88
2022-12-29T03:12:10.627Z,99713.53
2022-12-29T03:15:07.239Z,99701.81
2022-12-29T03:17:42.439Z,99692.50
2022-12-29T03:20:20.231Z,99693.25
2022-12-29T03:22:51.062Z,99703.03
2022-12-29T03:25:24.863Z,99702.53
2022-12-29T03:27:57.656Z,99708.88
2022-12-29T03:30:25.854Z,99714.69
2022-12-29T03:32:56.602Z,99704.19
2022-12-29T03:35:29.681Z,99705.59
2022-12-29T03:38:04.784Z,99703.94
2022-12-29T03:40:34.990Z,99700.00
2022-12-29T03:43:04.248Z,99693.94
2022-12-29T03:45:32.338Z,99690.59
2022-12-29T03:48:00.595Z,99701.81
2022-12-29T03:50:30.088Z,99694.66
2022-12-29T03:52:58.294Z,99701.00
2022-12-29T03:55:26.410Z,99695.13
2022-12-29T03:57:54.481Z,99710.78
2022-12-29T04:00:22.848Z,99709.69
2022-12-29T04:02:51.057Z,99715.22
2022-12-29T04:05:19.516Z,99709.09
2022-12-29T04:07:49.052Z,99708.28
2022-12-29T04:10:17.499Z,99710.31
2022-12-29T04:12:47.669Z,99715.69
2022-12-29T04:15:16.080Z,99718.19
2022-12-29T04:17:44.172Z,99726.19
2022-12-29T04:20:29.837Z,99723.69
2022-12-29T04:23:03.646Z,99715.00
2022-12-29T04:25:33.517Z,99699.94
2022-12-29T04:28:02.743Z,99718.84
2022-12-29T04:30:33.831Z,99704.84
2022-12-29T04:33:02.510Z,99708.44
2022-12-29T04:35:30.647Z,99715.13
2022-12-29T04:38:01.219Z,99721.69
2022-12-29T04:40:30.802Z,99733.41
2022-12-29T04:42:58.943Z,99720.53
2022-12-29T04:45:27.083Z,99729.84
2022-12-29T04:47:55.189Z,99730.09
2022-12-29T04:50:23.266Z,99729.84
2022-12-29T04:52:51.290Z,99727.72
2022-12-29T04:55:19.451Z,99718.19
2022-12-29T04:57:48.922Z,99732.25
2022-12-29T05:00:17.382Z,99746.09
2022-12-29T05:02:48.001Z,99741.91
2022-12-29T05:05:16.355Z,99744.53
2022-12-29T05:07:44.507Z,99753.97
2022-12-29T05:10:13.482Z,99791.34
2022-12-29T05:12:42.782Z,99755.66
2022-12-29T05:15:13.168Z,99761.41
2022-12-29T05:17:41.418Z,99759.84
2022-12-29T05:20:10.649Z,99770.47
2022-12-29T05:22:38.747Z,99781.69
2022-12-29T05:25:07.568Z,99795.63
2022-12-29T05:27:35.687Z,99788.00
2022-12-29T05:30:05.121Z,99790.84
2022-12-29T05:32:34.549Z,99789.78
2022-12-29T05:35:02.760Z,99794.75
2022-12-29T05:37:30.777Z,99794.88
2022-12-29T05:40:00.298Z,99803.19
2022-12-29T05:42:28.349Z,99811.66
2022-12-29T05:44:56.490Z,99815.81
2022-12-29T05:47:24.614Z,99818.19
2022-12-29T05:49:54.069Z,99810.44
2022-12-29T05:52:22.225Z,99816.00
2022-12-29T05:54:50.354Z,99806.19
2022-12-29T05:57:18.485Z,99815.75
2022-12-29T05:59:46.810Z,99815.84
2022-12-29T06:02:15.173Z,99820.03
2022-12-29T06:04:43.323Z,99808.94
2022-12-29T06:07:12.806Z,99817.75
2022-12-29T06:09:40.887Z,99808.34
2022-12-29T06:12:09.204Z,99808.44
2022-12-29T06:14:37.363Z,99813.66
2022-12-29T06:17:05.481Z,99815.34
2022-12-29T06:19:33.636Z,99808.91
2022-12-29T06:22:01.766Z,99817.38
2022-12-29T06:24:31.379Z,99820.09
2022-12-29T06:26:59.438Z,99822.50
2022-12-29T06:29:27.749Z,99829.97
2022-12-29T06:31:58.901Z,99824.94
2022-12-29T06:34:27.128Z,99833.25
2022-12-29T06:36:55.368Z,99825.06
2022-12-29T06:39:25.632Z,99827.28
2022-12-29T06:41:55.961Z,99835.06
2022-12-29T06:44:24.261Z,99843.63
2022-12-29T06:46:52.623Z,99838.38
2022-12-29T06:49:20.715Z,99828.53
2022-12-29T06:51:49.043Z,99828.53
2022-12-29T06:54:17.567Z,99830.91
2022-12-29T06:56:45.638Z,99831.53
2022-12-29T06:59:15.351Z,99832.13
2022-12-29T07:01:43.503Z,99835.59
2022-12-29T07:04:11.747Z,99840.63
2022-12-29T07:06:41.639Z,99826.69
2022-12-29T07:09:10.463Z,99843.94
2022-12-29T07:11:38.586Z,99840.28
2022-12-29T07:14:06.814Z,99840.16
2022-12-29T07:16:36.318Z,99854.00
2022-12-29T07:19:04.621Z,99845.91
2022-12-29T07:21:32.854Z,99850.22
2022-12-29T07:24:00.920Z,99838.91
2022-12-29T07:26:34.394Z,99849.25
2022-12-29T07:29:04.472Z,99850.22
2022-12-29T07:31:32.799Z,99847.69
2022-12-29T07:34:02.335Z,99852.72
2022-12-29T07:36:34.307Z,99855.97
2022-12-29T07:39:02.961Z,99862.75
2022-12-29T07:41:31.187Z,99863.69
2022-12-29T07:43:59.719Z,99858.47
2022-12-29T07:46:53.910Z,99870.50
2022-12-29T07:49:17.368Z,99875.41
2022-12-29T07:51:45.471Z,99877.91
2022-12-29T07:54:14.192Z,99889.38
2022-12-29T07:56:42.533Z,99906.16
2022-12-29T07:59:13.839Z,99899.13
2022-12-29T08:01:42.044Z,99910.34
2022-12-29T08:04:10.399Z,99912.84
2022-12-29T08:06:39.990Z,99916.31
2022-12-29T08:09:14.775Z,99910.25
2022-12-29T08:11:46.236Z,99909.63
2022-12-29T08:14:15.191Z,99906.16
2022-12-29T08:16:43.290Z,99903.75
2022-12-29T08:19:12.722Z,99919.16
2022-12-29T08:21:42.212Z,99925.06
2022-12-29T08:24:11.250Z,99925.06
2022-12-29T08:26:39.331Z,99923.38
2022-12-29T08:29:07.412Z,99941.03
2022-12-29T08:31:35.691Z,99923.78
2022-12-29T08:34:04.423Z,99925.34
2022-12-29T08:36:32.913Z,99922.72
2022-12-29T08:39:02.366Z,99917.97
2022-12-29T08:41:30.504Z,99923.94
2022-12-29T08:43:58.594Z,99923.75
2022-12-29T08:46:26.728Z,99919.19
2022-12-29T08:48:55.903Z,99918.03
2022-12-29T08:51:25.160Z,99904.34
2022-12-29T08:53:54.063Z,99915.81
2022-12-29T08:56:24.768Z,99916.44
2022-12-29T08:58:53.488Z,99915.25
2022-12-29T09:01:21.697Z,99911.06
2022-12-29T09:06:40.653Z,99919.41
2022-12-29T09:09:09.368Z,99917.50
2022-12-29T09:11:39.002Z,99910.69
2022-12-29T09:14:07.328Z,99910.81
2022-12-29T09:16:36.820Z,99925.72
2022-12-29T09:19:05.377Z,99928.47
2022-12-29T09:21:33.621Z,99918.66
2022-12-29T09:24:01.785Z,99923.75
2022-12-29T09:26:29.901Z,99927.16
2022-12-29T09:28:59.369Z,99937.41
2022-12-29T09:31:29.972Z,99938.06
2022-12-29T09:33:58.198Z,99936.88
2022-12-29T09:36:28.510Z,99945.16
2022-12-29T09:38:56.594Z,99938.47
2022-12-29T09:41:32.117Z,99940.97
2022-12-29T09:44:08.931Z,99936.34
2022-12-29T09:46:41.449Z,99948.91
2022-12-29T09:49:18.904Z,99952.47
2022-12-29T09:51:52.079Z,99956.78
2022-12-29T09:54:29.915Z,99965.25
2022-12-29T09:56:58.439Z,99961.91
2022-12-29T09:59:39.001Z,99975.22
2022-12-29T10:02:20.198Z,99979.53
2022-12-29T10:04:48.398Z,99977.25
2022-12-29T10:07:30.443Z,99986.19
2022-12-29T10:10:11.926Z,99983.25
2022-12-29T10:12:54.458Z,99994.91
2022-12-29T10:15:39.174Z,100005.53
2022-12-29T10:18:23.601Z,99999.03
2022-12-29T10:20:56.965Z,99994.34
2022-12-29T10:23:29.199Z,99999.16
2022-12-29T10:25:59.170Z,100003.03
2022-12-29T10:28:36.763Z,100003.13
2022-12-29T10:31:14.200Z,100008.81
2022-12-29T10:33:44.940Z,100012.38
2022-12-29T10:36:18.478Z,100008.19
2022-12-29T10:38:55.421Z,100021.91
2022-12-29T10:41:28.255Z,100030.09
2022-12-29T10:44:00.018Z,100016.38
2022-12-29T10:46:35.460Z,100020.25
2022-12-29T10:49:03.970Z,100036.69
2022-12-29T10:51:36.301Z,100044.25
2022-12-29T10:54:08.725Z,100051.25
2022-12-29T10:56:41.670Z,100055.22
2022-12-29T10:59:18.350Z,100057.16
2022-12-29T11:01:58.250Z,100068.03
2022-12-29T11:04:45.370Z,100065.53
2022-12-29T11:07:16.308Z,100061.00
2022-12-29T11:09:47.013Z,100065.41
2022-12-29T11:12:27.564Z,100086.16
2022-12-29T11:15:16.016Z,100081.88
2022-12-29T11:17:50.713Z,100075.03
2022-12-29T11:20:31.023Z,100093.09
2022-12-29T11:22:59.411Z,100100.97
2022-12-29T11:25:28.374Z,100105.06
2022-12-29T11:28:02.359Z,100096.03
2022-12-29T11:30:33.313Z,100099.06
2022-12-29T11:33:07.106Z,100097.78
2022-12-29T11:35:38.379Z,100101.47
2022-12-29T11:38:07.281Z,100101.47
2022-12-29T11:40:41.605Z,100115.41
2022-12-29T11:43:24.678Z,100108.28
2022-12-29T11:45:55.489Z,100117.91
2022-12-29T11:48:26.806Z,100117.91
2022-12-29T11:50:58.772Z,100135.22
2022-12-29T11:53:29.659Z,100127.97
2022-12-29T11:56:00.959Z,100128.72
2022-12-29T11:58:33.810Z,100120.53
2022-12-29T12:01:05.393Z,100136.16
2022-12-29T12:03:40.534Z,100138.56
2022-12-29T12:06:15.049Z,100144.84
2022-12-29T12:08:50.779Z,100151.78
2022-12-29T12:11:21.889Z,100151.66
2022-12-29T12:14:00.188Z,100142.34
2022-12-29T12:16:33.809Z,100141.28
2022-12-29T12:19:12.947Z,100149.03
2022-12-29T12:21:52.478Z,100139.41
2022-12-29T12:24:38.527Z,100149.91
2022-12-29T12:27:18.553Z,100156.81
2022-12-29T12:29:54.967Z,100162.28
2022-12-29T12:32:27.221Z,100157.56
2022-12-29T12:34:56.754Z,100167.41
2022-12-29T12:37:41.879Z,100157.56
2022-12-29T12:40:35.842Z,100166.66
2022-12-29T12:43:26.410Z,100176.75
2022-12-29T12:46:09.224Z,100181.53
2022-12-29T12:48:54.480Z,100180.19
2022-12-29T12:51:32.450Z,100172.06
2022-12-29T12:54:15.858Z,100185.31
2022-12-29T12:56:54.866Z,100183.63
2022-12-29T12:59:35.309Z,100183.22
2022-12-29T13:02:15.715Z,100188.59
2022-12-29T13:05:09.038Z,100192.31
2022-12-29T13:07:45.561Z,100186.25
2022-12-29T13:10:32.850Z,100198.75
2022-12-29T13:13:16.077Z,100208.75
2022-12-29T13:15:52.502Z,100209.81
2022-12-29T13:18:28.835Z,100204.13
2022-12-29T13:21:02.328Z,100209.16
2022-12-29T13:23:42.568Z,100210.53
2022-12-29T13:26:17.076Z,100206.53
2022-12-29T13:28:55.496Z,100205.59
2022-12-29T13:31:35.065Z,100214.31
2022-12-29T13:34:19.263Z,100214.09
2022-12-29T13:36:51.764Z,100212.72
2022-12-29T13:39:25.284Z,100205.38
2022-12-29T13:41:55.586Z,100215.88
2022-12-29T13:44:31.892Z,100215.88
2022-12-29T13:47:23.801Z,100221.66
2022-12-29T13:49:53.303Z,100224.50
2022-12-29T13:52:26.878Z,100225.44
2022-12-29T13:55:04.347Z,100223.88
2022-12-29T13:57:43.566Z,100226.59
2022-12-29T14:00:17.276Z,100228.78
2022-12-29T14:03:05.009Z,100233.19
2022-12-29T14:05:34.548Z,100234.38
2022-12-29T14:08:05.325Z,100232.25
2022-12-29T14:10:37.640Z,100246.25
2022-12-29T14:13:08.715Z,100246.22
2022-12-29T14:15:42.438Z,100243.28
2022-12-29T14:18:16.970Z,100249.59
2022-12-29T14:20:55.690Z,100247.94
2022-12-29T14:23:41.906Z,100255.38
2022-12-29T14:26:20.908Z,100251.88
2022-12-29T14:28:50.545Z,100267.72
2022-12-29T14:31:42.956Z,100248.72
2022-12-29T14:34:41.590Z,100262.06
2022-12-29T14:37:26.900Z,100268.06
2022-12-29T14:40:07.801Z,100271.78
2022-12-29T14:42:37.477Z,100283.75
2022-12-29T14:45:24.728Z,100287.94
2022-12-29T14:47:54.718Z,100277.31
2022-12-29T14:50:26.757Z,100274.47
2022-12-29T14:53:02.953Z,100279.13
2022-12-29T14:55:40.483Z,100281.69
2022-12-29T14:58:18.076Z,100284.13
2022-12-29T15:00:47.617Z,100288.22
2022-12-29T15:03:20.291Z,100286.63
2022-12-29T15:05:51.031Z,100285.06
2022-12-29T15:08:21.505Z,100280.00
2022-12-29T15:10:58.454Z,100281.31
2022-12-29T15:13:36.531Z,100290.50
2022-12-29T15:16:05.369Z,100293.13
2022-12-29T15:18:35.507Z,100286.94
2022-12-29T15:21:05.645Z,100294.03
2022-12-29T15:23:35.906Z,100288.91
2022-12-29T15:26:07.415Z,100281.25
2022-12-29T15:28:42.063Z,100285.25
2022-12-29T15:31:16.346Z,100282.78
2022-12-29T15:33:48.294Z,100288.09
2022-12-29T15:36:21.139Z,100279.22
2022-12-29T15:38:49.470Z,100282.16
2022-12-29T15:41:29.175Z,100292.31
2022-12-29T15:44:08.439Z,100290.56
2022-12-29T15:46:36.959Z,100296.72
2022-12-29T15:49:08.658Z,100295.97
2022-12-29T15:51:39.881Z,100302.69
2022-12-29T15:54:14.634Z,100305.72
2022-12-29T15:56:43.736Z,100314.31
2022-12-29T15:59:26.019Z,100315.44
2022-12-29T16:01:55.304Z,100319.09
2022-12-29T16:04:23.900Z,100321.81
2022-12-29T16:06:58.106Z,100319.38
2022-12-29T16:09:33.548Z,100324.72
2022-12-29T16:12:04.053Z,100328.06
2022-12-29T16:14:40.260Z,100339.22
2022-12-29T16:17:08.575Z,100337.25
2022-12-29T16:19:38.903Z,100334.06
2022-12-29T16:22:28.652Z,100334.78
2022-12-29T16:25:04.439Z,100339.41
2022-12-29T16:27:40.265Z,100340.78
2022-12-29T16:30:24.299Z,100331.16
2022-12-29T16:33:00.152Z,100341.09
2022-12-29T16:35:50.079Z,100348.00
2022-12-29T16:38:22.390Z,100341.91
2022-12-29T16:40:54.948Z,100342.03
2022-12-29T16:43:25.253Z,100340.53
2022-12-29T16:46:23.071Z,100333.72
2022-12-29T16:48:56.443Z,100342.59
2022-12-29T16:51:32.141Z,100341.19
2022-12-29T16:54:01.862Z,100352.41
2022-12-29T16:56:32.608Z,100350.81
2022-12-29T16:59:05.450Z,100349.16
2022-12-29T17:01:37.088Z,100355.69
2022-12-29T17:04:11.708Z,100356.91
2022-12-29T17:06:40.483Z,100368.38
2022-12-29T17:09:19.216Z,100366.25
2022-12-29T17:12:02.874Z,100364.66
2022-12-29T17:14:42.698Z,100352.16
2022-12-29T17:17:17.709Z,100360.91
2022-12-29T17:19:51.157Z,100362.69
2022-12-29T17:22:22.854Z,100371.75
2022-12-29T17:24:50.955Z,100375.38
2022-12-29T17:27:37.193Z,100388.66
2022-12-29T17:30:07.584Z,100399.22
2022-12-29T17:32:35.720Z,100402.03
2022-12-29T17:35:05.700Z,100408.47
2022-12-29T17:37:36.992Z,100416.22
2022-12-29T17:40:07.562Z,100404.91
2022-12-29T17:42:41.504Z,100416.38
2022-12-29T17:45:15.993Z,100412.53
2022-12-29T17:47:44.644Z,100415.06
2022-12-29T17:50:17.515Z,100414.16
2022-12-29T17:53:00.088Z,100421.31
2022-12-29T17:55:36.896Z,100420.00
2022-12-29T17:58:17.715Z,100417.81
2022-12-29T18:00:46.432Z,100424.72
2022-12-29T18:03:17.323Z,100428.47
2022-12-29T18:05:47.047Z,100433.69
2022-12-29T18:08:15.077Z,100435.72
2022-12-29T18:10:43.709Z,100434.78
2022-12-29T18:13:21.312Z,100449.06
2022-12-29T18:15:49.673Z,100452.78
2022-12-29T18:18:19.914Z,100460.03
2022-12-29T18:20:51.178Z,100462.38
2022-12-29T18:23:22.284Z,100468.66
2022-12-29T18:25:53.961Z,100475.03
2022-12-29T18:28:23.613Z,100460.53
2022-12-29T18:30:52.413Z,100477.16
2022-12-29T18:33:24.977Z,100479.84
2022-12-29T18:35:58.251Z,100477.00
2022-12-29T18:38:26.695Z,100491.06
2022-12-29T18:40:55.346Z,100480.63
2022-12-29T18:43:23.807Z,100482.31
2022-12-29T18:45:57.676Z,100480.63
2022-12-29T18:48:25.867Z,100483.16
2022-12-29T18:50:55.311Z,100471.75
2022-12-29T18:53:24.971Z,100474.56
2022-12-29T18:55:53.916Z,100481.81
2022-12-29T18:58:22.244Z,100485.50
2022-12-29T19:00:51.021Z,100488.13
2022-12-29T19:03:20.121Z,100487.63
2022-12-29T19:05:48.883Z,100492.06
2022-12-29T19:08:18.644Z,100493.50
2022-12-29T19:10:51.094Z,100498.38
2022-12-29T19:13:23.623Z,100497.78
2022-12-29T19:15:54.246Z,100504.88
2022-12-29T19:21:12.628Z,100512.03
2022-12-29T19:23:50.796Z,100524.09
2022-12-29T19:26:31.452Z,100526.09
2022-12-29T19:29:00.779Z,100521.81
2022-12-29T19:31:29.447Z,100528.66
2022-12-29T19:33:57.686Z,100526.34
2022-12-29T19:36:25.761Z,100535.00
2022-12-29T19:38:55.864Z,100528.97
2022-12-29T19:41:24.514Z,100522.47
2022-12-29T19:43:52.562Z,100529.47
2022-12-29T19:46:21.393Z,100541.00
2022-12-29T19:48:50.541Z,100541.75
2022-12-29T19:51:19.014Z,100541.75
2022-12-29T19:53:47.886Z,100533.19
2022-12-29T19:56:18.285Z,100543.47
2022-12-29T19:58:47.834Z,100540.00
2022-12-29T20:01:18.522Z,100538.06
2022-12-29T20:03:47.086Z,100535.78
2022-12-29T20:06:16.046Z,100539.22
2022-12-29T20:08:44.906Z,100532.47
2022-12-29T20:11:15.169Z,100530.56
2022-12-29T20:13:45.467Z,100543.34
2022-12-29T20:16:16.188Z,100534.66
2022-12-29T20:18:44.779Z,100533.66
2022-12-29T20:21:14.978Z,100539.13
2022-12-29T20:23:44.864Z,100542.56
2022-12-29T20:26:15.447Z,100546.97
2022-12-29T20:28:45.015Z,100555.72
2022-12-29T20:31:19.401Z,100551.19
2022-12-29T20:33:47.769Z,100549.31
2022-12-29T20:36:18.483Z,100557.41
2022-12-29T20:38:47.360Z,100568.16
2022-12-29T20:41:15.890Z,100570.03
2022-12-29T20:43:45.741Z,100577.00
2022-12-29T20:46:20.211Z,100578.06
2022-12-29T20:48:49.383Z,100587.53
2022-12-29T20:51:17.703Z,100595.53
2022-12-29T20:53:45.743Z,100588.53
2022-12-29T20:56:16.273Z,100588.59
2022-12-29T20:59:17.518Z,100587.00
2022-12-29T21:01:35.505Z,100594.06
2022-12-29T21:04:03.854Z,100594.06
2022-12-29T21:06:31.909Z,100601.81
2022-12-29T21:09:00.434Z,100599.38
2022-12-29T21:11:29.015Z,100592.47
2022-12-29T21:14:01.167Z,100594.44
2022-12-29T21:16:30.482Z,100603.13
2022-12-29T21:18:58.870Z,100605.88
2022-12-29T21:21:27.673Z,100605.81
2022-12-29T21:24:05.310Z,100599.03
2022-12-29T21:26:35.015Z,100607.84
2022-12-29T21:29:04.975Z,100612.38
2022-12-29T21:31:35.914Z,100612.38
2022-12-29T21:34:05.649Z,100609.06
2022-12-29T21:36:34.398Z,100610.78
2022-12-29T21:39:04.187Z,100616.91
2022-12-29T21:41:32.995Z,100616.19
2022-12-29T21:44:19.455Z,100622.28
2022-12-29T21:46:48.928Z,100630.19
2022-12-29T21:49:17.310Z,100630.28
2022-12-29T21:51:51.341Z,100637.16
2022-12-29T21:54:37.799Z,100649.28
2022-12-29T21:57:06.708Z,100640.72
2022-12-29T21:59:52.402Z,100646.84
2022-12-29T22:02:41.937Z,100644.00
2022-12-29T22:05:30.243Z,100653.75
2022-12-29T22:08:16.301Z,100653.13
2022-12-29T22:11:06.568Z,100656.56
2022-12-29T22:13:35.750Z,100655.94
2022-12-29T22:16:04.806Z,100667.09
2022-12-29T22:18:34.675Z,100673.09
2022-12-29T22:21:05.551Z,100680.06
2022-12-29T22:23:33.892Z,100685.28
2022-12-29T22:26:05.085Z,100688.13
2022-12-29T22:28:33.787Z,100683.88
2022-12-29T22:31:02.092Z,100692.78
2022-12-29T22:33:30.274Z,100690.25
2022-12-29T22:36:00.089Z,100701.75
2022-12-29T22:38:28.215Z,100707.78
2022-12-29T22:40:59.987Z,100711.53
2022-12-29T22:43:29.999Z,100715.22
2022-12-29T22:46:03.620Z,100712.38
2022-12-29T22:48:33.278Z,100714.22
2022-12-29T22:51:03.436Z,100717.88
2022-12-29T22:53:31.870Z,100718.56
2022-12-29T22:56:04.914Z,100720.56
2022-12-29T22:58:33.103Z,100729.47
2022-12-29T23:01:01.468Z,100739.03
2022-12-29T23:03:29.824Z,100741.63
2022-12-29T23:05:59.322Z,100744.16
2022-12-29T23:08:32.052Z,100743.06
2022-12-29T23:11:00.190Z,100746.69
2022-12-29T23:13:28.718Z,100753.53
2022-12-29T23:15:56.988Z,100759.56
2022-12-29T23:18:25.392Z,100759.63
2022-12-29T23:20:53.506Z,100756.94
2022-12-29T23:23:35.819Z,100773.44
2022-12-29T23:26:05.616Z,100776.25
2022-12-29T23:28:33.813Z,100782.38
2022-12-29T23:31:02.228Z,100792.16
2022-12-29T23:33:30.420Z,100785.06
2022-12-29T23:35:58.555Z,100794.78
2022-12-29T23:38:29.295Z,100788.66
2022-12-29T23:40:59.998Z,100799.16
2022-12-29T23:43:29.630Z,100793.28
2022-12-29T23:45:57.832Z,100785.31
2022-12-29T23:48:25.850Z,100785.41
2022-12-29T23:50:53.918Z,100787.25
2022-12-29T23:53:22.285Z,100789.91
2022-12-29T23:55:54.911Z,100796.94
2022-12-29T23:58:22.787Z,100792.72
